Lutsen Mountain, Minnesota
Current Conditions -  °F | °C
As of 6:14 AM on Friday 28 Nov 2014 (Local Time) from KCKC Reporting Station
Light Snow Light Snow  
Wind Chill:   Ceiling: 6000
Heat Index:   Visibility: 7mi
Dew Point:   Wind: 3mph
Humidity: 79%   Direction: 220°SW
Pressure: 30.04"   Gusts: NA
Location:  47.66°N, 90.71°W
Report Text: KCKC 281214Z AUTO 22003KT 7SM -SN SCT016 OVC060 M14/M17 A3004 RMK AO2
Loading
Personal Weather Stations






























Interactive Weather Map New forecast layout! Learn more

10-Day Weather Forecast

Advertisements
Track Severe Weather on mobile